Flight Number: EUR2104 Duration: 1:15
Departure: Hamburg Fuhlsbuettel (EDDH) at 08:00 Distance: 324 Nm
Arrival: Munich Int'l (EDDM) at 09:15 Equipment: DHC8

Weather Information
Hamburg-Fuhlsbuettel, Germany (EDDH) 53-38N 010-00E 15M Feb 19, 2018 - 02:20 AM EST / 2018.02.19 0720 UTC
Wind: from the SSE (160 degrees) at 5 MPH (4 KT):0
Visibility: greater than 7 mile(s):0
Sky conditions: mostly cloudy Temperature: 33 F (1 C)
Windchill: 28 F (-2 C):1 Dew Point: 28 F (-2 C) Relative Humidity: 80% Pressure (altimeter): 30.15 in. Hg (1021 hPa)
ob: EDDH 190720Z 16004KT 9999 BKN021 BKN075 01/M02 Q1021 NOSIG cycle: 7
Sunrise: 06:33 Sunset: 16:34 (UTC)

Munchen, Germany (EDDM) 48-21N 011-47E Feb 19, 2018 - 02:20 AM EST / 2018.02.19 0720 UTC
Wind: Variable at 1 MPH (1 KT):0
Visibility: greater than 7 mile(s):0
Sky conditions: mostly cloudy Temperature: 24 F (-4 C) Dew Point: 23 F (-5 C) Relative Humidity: 92% Pressure (altimeter): 30.09 in. Hg (1019 hPa)
ob: EDDM 190720Z VRB01KT 9999 BKN010 M04/M05 Q1019 R88/190095 TEMPO BKN008 cycle: 7
Sunrise: 06:15 Sunset: 16:37 (UTC)

TAF:2018/02/19 06:27 TAF EDDM 190500Z 1906/2012 06005KT 8000 BKN012 TEMPO 1907/1918 BKN008 BECMG 1915/1918 VRB03KT BECMG 1920/1922 BKN020

Previous Pireps for this route
Date Aircraft Flight time Fuel used Landing rate On time
2012-08-12DHC81.1315660Yes
2014-12-24DHC81.327522-162No
2017-01-10B73701.247868-452Charter
(pireps marked green are flown by you)

Route map